Time;durP1;ratioP1;P1;durP2;ratioP2;P2;SDS_P1;SDS_P2;PMS_P1;PMS_P2;Temp;Humidity;BMP_temperature;BMP_pressure;BME280_temperature;BME280_humidity;BME280_pressure;Samples;Min_cycle;Max_cycle;Signal;HPM_P1;HPM_P2
2022/06/09 00:00:35;;;;;;;17.70;4.15;;;;;;;12.99;100.00;100659.56;4993155;28;20030;-73
2022/06/09 00:03:07;;;;;;;10.93;3.83;;;;;;;12.99;100.00;100650.59;4995115;28;20050;-73
2022/06/09 00:05:33;;;;;;;14.30;3.92;;;;;;;12.94;100.00;100662.22;4995026;28;20030;-73
2022/06/09 00:08:04;;;;;;;16.75;3.90;;;;;;;12.95;100.00;100663.84;4996342;28;20030;-73
2022/06/09 00:10:34;;;;;;;12.32;4.18;;;;;;;12.98;100.00;100673.41;4996568;28;20113;-73
2022/06/09 00:13:00;;;;;;;18.05;3.90;;;;;;;12.94;100.00;100667.66;4995950;28;20056;-73
2022/06/09 00:15:26;;;;;;;18.30;4.82;;;;;;;12.96;100.00;100676.34;4995886;28;20038;-73
2022/06/09 00:17:51;;;;;;;14.48;4.10;;;;;;;12.97;100.00;100675.31;4996163;28;20042;-73
2022/06/09 00:20:17;;;;;;;17.30;4.25;;;;;;;13.00;100.00;100676.69;4995109;28;20390;-72
2022/06/09 00:22:43;;;;;;;15.80;4.60;;;;;;;13.00;100.00;100680.25;4994800;28;20493;-73
2022/06/09 00:25:09;;;;;;;19.23;4.57;;;;;;;13.01;100.00;100672.91;4994615;28;20036;-73
2022/06/09 00:27:34;;;;;;;20.80;4.35;;;;;;;13.01;100.00;100668.28;4994809;28;20026;-73
2022/06/09 00:30:01;;;;;;;17.08;4.25;;;;;;;13.01;100.00;100672.91;4994185;28;20176;-73
2022/06/09 00:32:26;;;;;;;18.65;4.57;;;;;;;12.99;100.00;100669.63;4994776;28;20394;-73
2022/06/09 00:34:52;;;;;;;21.90;4.85;;;;;;;13.00;100.00;100673.97;4994593;28;20030;-73
2022/06/09 00:37:17;;;;;;;14.02;3.75;;;;;;;13.00;100.00;100674.81;4994815;28;20494;-73
2022/06/09 00:39:42;;;;;;;15.00;4.18;;;;;;;13.02;100.00;100674.56;4995697;28;20026;-73
2022/06/09 00:42:09;;;;;;;16.20;4.05;;;;;;;12.99;100.00;100680.47;4995561;28;20034;-73
2022/06/09 00:44:37;;;;;;;18.02;4.38;;;;;;;12.96;100.00;100675.53;4996037;28;20030;-73
2022/06/09 00:47:28;;;;;;;14.75;4.30;;;;;;;12.94;100.00;100675.78;4995045;28;20031;-73
2022/06/09 00:50:15;;;;;;;18.90;4.45;;;;;;;13.01;100.00;100678.34;4994839;28;20052;-73
2022/06/09 00:52:47;;;;;;;17.10;4.53;;;;;;;12.90;100.00;100689.00;4995875;28;20066;-73
2022/06/09 00:55:17;;;;;;;16.15;4.35;;;;;;;12.89;100.00;100691.97;4995582;28;20030;-73
2022/06/09 00:57:50;;;;;;;18.00;4.10;;;;;;;12.84;100.00;100675.59;4995728;28;20517;-73
2022/06/09 01:00:21;;;;;;;18.88;5.20;;;;;;;12.84;100.00;100684.56;4993163;28;20034;-73
2022/06/09 01:02:49;;;;;;;25.88;5.43;;;;;;;12.86;100.00;100689.75;4992347;28;20041;-73
2022/06/09 01:05:19;;;;;;;20.88;5.35;;;;;;;12.79;100.00;100695.34;4995072;28;20604;-72
2022/06/09 01:07:53;;;;;;;22.73;4.95;;;;;;;12.76;100.00;100688.50;4995426;28;20037;-73
2022/06/09 01:10:18;;;;;;;27.50;5.18;;;;;;;12.72;100.00;100679.19;4994951;28;20053;-73
2022/06/09 01:12:45;;;;;;;21.00;4.80;;;;;;;12.75;100.00;100681.41;4995473;28;20109;-73
2022/06/09 01:15:19;;;;;;;26.83;5.00;;;;;;;12.76;100.00;100688.50;4994672;28;20042;-73
2022/06/09 01:18:02;;;;;;;19.25;4.68;;;;;;;12.77;100.00;100694.75;4995027;28;20386;-73
2022/06/09 01:21:06;;;;;;;19.15;5.18;;;;;;;12.79;100.00;100689.91;4995101;28;20022;-73
2022/06/09 01:24:22;;;;;;;17.63;5.00;;;;;;;12.78;100.00;100690.97;4992446;28;20141;-73
2022/06/09 01:26:53;;;;;;;24.27;5.40;;;;;;;12.75;100.00;100696.88;4982488;28;20548;-73
2022/06/09 01:29:54;;;;;;;17.65;5.57;;;;;;;12.80;100.00;100699.69;4994903;28;20382;-73
2022/06/09 01:32:27;;;;;;;22.83;5.20;;;;;;;12.75;100.00;100696.88;4974420;28;20035;-73
2022/06/09 01:35:37;;;;;;;19.75;4.35;;;;;;;12.75;100.00;100697.72;4990511;28;20054;-73
2022/06/09 01:38:03;;;;;;;25.45;6.10;;;;;;;12.75;100.00;100707.75;4953062;29;20043;-73
2022/06/09 01:40:29;;;;;;;22.98;5.57;;;;;;;12.72;100.00;100697.38;4953499;29;20035;-73
2022/06/09 01:42:56;;;;;;;25.70;6.60;;;;;;;12.74;100.00;100704.22;4977549;28;20520;-72
2022/06/09 01:45:27;;;;;;;24.20;5.65;;;;;;;12.74;100.00;100706.09;4996121;28;20141;-73
2022/06/09 01:48:04;;;;;;;26.92;6.22;;;;;;;12.75;100.00;100707.75;4993393;28;20109;-73
2022/06/09 01:50:54;;;;;;;24.00;5.22;;;;;;;12.73;100.00;100716.13;4994835;28;20092;-73
2022/06/09 01:53:28;;;;;;;28.23;6.55;;;;;;;12.72;100.00;100721.81;4993936;28;20065;-73
2022/06/09 01:56:09;;;;;;;23.98;5.97;;;;;;;12.76;100.00;100720.28;4994630;28;20111;-73
2022/06/09 01:58:41;;;;;;;24.23;5.80;;;;;;;12.70;100.00;100727.50;4992892;28;20033;-73
2022/06/09 02:01:09;;;;;;;23.60;5.68;;;;;;;12.71;100.00;100728.31;4991800;28;20054;-73
2022/06/09 02:03:40;;;;;;;24.35;5.80;;;;;;;12.72;100.00;100713.66;4994477;28;20061;-73
2022/06/09 02:06:08;;;;;;;30.17;6.65;;;;;;;12.70;100.00;100710.38;4993927;28;20062;-73
2022/06/09 02:08:35;;;;;;;24.80;6.53;;;;;;;12.68;100.00;100721.50;4993080;28;20034;-73
2022/06/09 02:11:06;;;;;;;27.88;6.65;;;;;;;12.66;100.00;100726.31;4993979;28;20073;-73
2022/06/09 02:13:36;;;;;;;26.10;6.45;;;;;;;12.70;100.00;100729.38;4993898;28;20034;-73
2022/06/09 02:16:06;;;;;;;24.40;6.28;;;;;;;12.63;100.00;100729.50;4992667;28;20026;-73
2022/06/09 02:18:37;;;;;;;31.52;7.70;;;;;;;12.64;100.00;100738.50;4992028;28;20027;-73
2022/06/09 02:21:24;;;;;;;28.52;6.80;;;;;;;12.61;100.00;100739.00;4993759;28;20038;-73
2022/06/09 02:23:51;;;;;;;31.17;7.07;;;;;;;12.58;100.00;100734.84;4992532;28;20077;-74
2022/06/09 02:26:16;;;;;;;22.90;6.45;;;;;;;12.58;100.00;100734.84;4993910;28;20113;-73
2022/06/09 02:28:43;;;;;;;22.08;7.28;;;;;;;12.61;100.00;100739.00;4993850;28;20542;-74
2022/06/09 02:31:09;;;;;;;27.60;6.68;;;;;;;12.59;100.00;100740.03;4993773;28;20030;-77
2022/06/09 02:33:34;;;;;;;21.92;7.35;;;;;;;12.59;100.00;100742.75;4992467;28;20069;-73
2022/06/09 02:36:00;;;;;;;30.50;7.53;;;;;;;12.56;100.00;100748.66;4993493;28;20054;-74
2022/06/09 02:38:25;;;;;;;27.25;7.07;;;;;;;12.58;100.00;100753.84;4993789;28;20451;-72
2022/06/09 02:40:52;;;;;;;26.73;7.18;;;;;;;12.56;100.00;100753.25;4992552;28;20030;-73
2022/06/09 02:43:17;;;;;;;29.58;7.45;;;;;;;12.54;100.00;100750.78;4992970;28;20031;-73
2022/06/09 02:45:43;;;;;;;27.75;6.82;;;;;;;12.55;100.00;100757.06;4992071;28;20038;-74
2022/06/09 02:48:09;;;;;;;23.05;6.95;;;;;;;12.55;100.00;100757.06;4993426;28;20037;-73
2022/06/09 02:50:35;;;;;;;26.83;7.32;;;;;;;12.52;100.00;100761.06;4993652;28;20351;-73
2022/06/09 02:53:01;;;;;;;33.42;8.23;;;;;;;12.51;100.00;100756.69;4993309;28;20065;-74
2022/06/09 02:55:28;;;;;;;28.55;7.20;;;;;;;12.47;100.00;100760.97;4991864;28;20657;-74
2022/06/09 02:57:53;;;;;;;28.17;7.53;;;;;;;12.44;100.00;100760.59;4993504;28;20029;-73
2022/06/09 03:00:19;;;;;;;32.85;7.97;;;;;;;12.48;100.00;100768.03;4993044;28;20756;-73
2022/06/09 03:02:56;;;;;;;25.77;7.68;;;;;;;12.47;100.00;100771.81;4991094;28;20027;-73
2022/06/09 03:05:22;;;;;;;25.85;7.95;;;;;;;12.47;100.00;100770.97;4993274;28;20096;-74
2022/06/09 03:07:48;;;;;;;28.55;8.35;;;;;;;12.44;100.00;100776.88;4993046;28;20033;-73
2022/06/09 03:10:13;;;;;;;32.75;9.07;;;;;;;12.46;100.00;100789.16;4993047;28;20545;-73
2022/06/09 03:12:39;;;;;;;25.33;7.97;;;;;;;12.46;100.00;100786.44;4992052;28;20386;-73
2022/06/09 03:15:08;;;;;;;31.38;7.78;;;;;;;12.43;100.00;100794.25;4992551;28;20041;-74
2022/06/09 03:17:34;;;;;;;27.40;7.13;;;;;;;12.45;100.00;100800.25;4993203;28;20022;-73
2022/06/09 03:19:59;;;;;;;25.75;6.95;;;;;;;12.41;100.00;100806.16;4991922;28;20034;-73
2022/06/09 03:22:24;;;;;;;30.75;8.23;;;;;;;12.43;100.00;100802.41;4991448;28;20046;-73
2022/06/09 03:24:50;;;;;;;27.45;8.18;;;;;;;12.42;100.00;100809.69;4991810;28;20031;-74
2022/06/09 03:27:15;;;;;;;22.63;7.90;;;;;;;12.42;100.00;100817.84;4992856;28;20027;-73
2022/06/09 03:29:40;;;;;;;26.30;7.88;;;;;;;12.42;100.00;100812.41;4996993;28;20398;-73
2022/06/09 03:32:06;;;;;;;27.55;7.47;;;;;;;12.40;100.00;100811.84;4999301;28;20072;-73
2022/06/09 03:34:31;;;;;;;31.30;7.78;;;;;;;12.36;100.00;100818.78;4999486;28;20161;-74
2022/06/09 03:36:57;;;;;;;31.45;7.78;;;;;;;12.41;100.00;100822.44;4998398;28;20031;-73
2022/06/09 03:39:22;;;;;;;24.60;7.60;;;;;;;12.38;100.00;100832.97;4999422;28;20458;-74
2022/06/09 03:41:47;;;;;;;30.35;8.10;;;;;;;12.37;100.00;100831.31;4999482;28;20057;-74
2022/06/09 03:44:13;;;;;;;25.20;8.00;;;;;;;12.35;100.00;100839.69;4997890;28;20037;-73
2022/06/09 03:46:38;;;;;;;31.80;8.25;;;;;;;12.34;100.00;100843.44;4997922;28;20041;-74
2022/06/09 03:49:04;;;;;;;26.85;7.57;;;;;;;12.36;100.00;100844.03;4999113;28;20372;-74
2022/06/09 03:51:29;;;;;;;28.27;7.90;;;;;;;12.30;100.00;100847.69;4999431;28;20041;-74
2022/06/09 03:53:55;;;;;;;25.63;8.30;;;;;;;12.29;100.00;100851.50;4997976;28;20125;-74
2022/06/09 03:56:21;;;;;;;32.92;7.95;;;;;;;12.30;100.00;100849.59;4999546;28;20057;-74
2022/06/09 03:58:47;;;;;;;24.92;7.68;;;;;;;12.29;100.00;100854.19;4998205;28;20470;-74
2022/06/09 04:01:17;;;;;;;26.83;8.43;;;;;;;12.27;100.00;100859.03;4995351;28;20037;-74
2022/06/09 04:03:43;;;;;;;27.17;8.40;;;;;;;12.30;100.00;100860.44;4979729;28;20037;-73
2022/06/09 04:06:15;;;;;;;29.92;8.75;;;;;;;12.28;100.00;100865.28;4979654;28;20110;-73
2022/06/09 04:08:40;;;;;;;30.48;8.52;;;;;;;12.28;100.00;100870.72;4979593;28;20033;-74
2022/06/09 04:11:05;;;;;;;26.58;8.57;;;;;;;12.24;100.00;100878.47;4979589;28;20034;-74
2022/06/09 04:13:31;;;;;;;28.98;7.97;;;;;;;12.24;100.00;100875.78;4978317;28;20088;-74
2022/06/09 04:15:56;;;;;;;27.98;8.30;;;;;;;12.23;100.00;100872.25;4979704;28;20129;-74
2022/06/09 04:18:21;;;;;;;34.70;8.98;;;;;;;12.23;100.00;100883.09;4998564;28;20092;-74
2022/06/09 04:20:47;;;;;;;25.80;8.15;;;;;;;12.20;100.00;100878.13;4997949;28;20525;-73
2022/06/09 04:23:12;;;;;;;25.58;8.43;;;;;;;12.21;100.00;100887.94;4998877;28;20592;-74
2022/06/09 04:25:39;;;;;;;28.70;8.30;;;;;;;12.20;100.00;100886.28;4999477;28;20027;-74
2022/06/09 04:28:05;;;;;;;27.17;8.30;;;;;;;12.23;100.00;100887.69;4997817;28;20385;-74
2022/06/09 04:30:30;;;;;;;28.95;8.93;;;;;;;12.19;100.00;100890.03;4997821;28;20038;-74
2022/06/09 04:32:57;;;;;;;28.65;8.57;;;;;;;12.22;100.00;100895.00;4996425;28;20050;-74
2022/06/09 04:35:23;;;;;;;26.15;8.32;;;;;;;12.23;100.00;100893.94;4998747;28;20433;-73
2022/06/09 04:38:00;;;;;;;29.77;7.93;;;;;;;12.23;100.00;100895.84;4997814;28;20030;-73
2022/06/09 04:40:28;;;;;;;34.08;8.80;;;;;;;12.23;100.00;100898.56;4997196;28;20034;-73
2022/06/09 04:42:54;;;;;;;24.40;8.13;;;;;;;12.24;100.00;100900.19;4995827;28;20039;-73
2022/06/09 04:45:19;;;;;;;29.55;7.95;;;;;;;12.26;100.00;100902.66;4995702;28;20458;-73
2022/06/09 04:47:45;;;;;;;30.67;8.63;;;;;;;12.28;100.00;100909.53;4994513;28;20129;-74
2022/06/09 04:50:11;;;;;;;27.23;8.43;;;;;;;12.36;100.00;100913.78;4994050;28;20068;-73
2022/06/09 04:52:37;;;;;;;33.58;8.88;;;;;;;12.35;100.00;100914.81;4995640;28;20042;-74
2022/06/09 04:55:03;;;;;;;29.08;8.98;;;;;;;12.37;100.00;100915.44;4995482;28;20425;-74
2022/06/09 04:57:29;;;;;;;28.40;8.65;;;;;;;12.34;100.00;100910.47;4995728;28;20034;-74
2022/06/09 04:59:54;;;;;;;33.25;9.13;;;;;;;12.38;100.00;100920.63;4994377;28;20030;-74
2022/06/09 05:02:20;;;;;;;29.45;8.75;;;;;;;12.42;100.00;100926.41;4992908;28;20041;-73
2022/06/09 05:04:45;;;;;;;30.17;8.85;;;;;;;12.44;100.00;100929.72;4995334;28;20033;-74
2022/06/09 05:07:11;;;;;;;30.27;9.38;;;;;;;12.47;100.00;100929.25;4995277;28;20053;-74
2022/06/09 05:09:36;;;;;;;27.17;9.73;;;;;;;12.55;100.00;100950.59;4995471;28;20085;-74
2022/06/09 05:12:01;;;;;;;29.65;8.70;;;;;;;12.56;100.00;100940.56;4994855;28;20030;-74
2022/06/09 05:14:27;;;;;;;23.65;8.32;;;;;;;12.64;100.00;100961.13;4995398;28;20448;-73
2022/06/09 05:16:52;;;;;;;30.95;8.75;;;;;;;12.69;100.00;100959.31;4995052;28;20037;-74
2022/06/09 05:19:17;;;;;;;27.30;8.85;;;;;;;12.80;100.00;100963.09;4994921;28;20177;-74
2022/06/09 05:21:43;;;;;;;30.33;9.15;;;;;;;12.88;100.00;100968.19;4993830;28;20034;-74
2022/06/09 05:24:08;;;;;;;34.97;9.40;;;;;;;12.99;100.00;100969.22;4993458;28;20046;-74
2022/06/09 05:26:33;;;;;;;25.52;8.88;;;;;;;13.04;100.00;100960.34;4993829;28;20027;-74
2022/06/09 05:28:59;;;;;;;26.45;8.20;;;;;;;13.10;100.00;100975.69;4995174;28;20458;-74
2022/06/09 05:31:24;;;;;;;24.92;8.35;;;;;;;13.11;100.00;100966.50;4994988;28;20682;-72
2022/06/09 05:33:50;;;;;;;22.08;8.00;;;;;;;13.16;100.00;100969.31;4994480;28;20042;-73
2022/06/09 05:36:15;;;;;;;28.00;8.70;;;;;;;13.17;100.00;100997.31;4994763;28;20418;-73
2022/06/09 05:46:53;;;;;;;21.58;7.07;;;;;;;13.08;100.00;101003.09;4994787;28;20045;-76
2022/06/09 05:49:19;;;;;;;22.77;6.78;;;;;;;13.09;100.00;101014.81;4993089;28;20030;-76
2022/06/09 05:51:47;;;;;;;22.27;7.63;;;;;;;13.09;100.00;101012.91;4993039;28;20113;-75
2022/06/09 05:54:13;;;;;;;24.10;7.53;;;;;;;13.15;100.00;101016.59;4993802;28;20026;-75
2022/06/09 05:56:38;;;;;;;27.35;8.50;;;;;;;13.21;100.00;101014.78;4994588;28;20048;-74
2022/06/09 05:59:04;;;;;;;23.63;7.10;;;;;;;13.28;100.00;101016.31;4994551;28;20023;-76
2022/06/09 06:01:29;;;;;;;30.35;7.28;;;;;;;13.36;100.00;101022.47;4992129;28;20062;-75
2022/06/09 06:03:54;;;;;;;27.10;7.75;;;;;;;13.49;100.00;101024.13;4994495;28;20035;-74
2022/06/09 06:06:34;;;;;;;20.85;6.97;;;;;;;13.60;100.00;101028.69;4994263;28;20088;-72
2022/06/09 06:09:03;;;;;;;26.27;7.07;;;;;;;13.65;100.00;101040.50;4994554;28;20061;-73
2022/06/09 06:11:28;;;;;;;23.33;7.25;;;;;;;13.67;100.00;101039.44;4993468;28;20041;-74
2022/06/09 06:13:54;;;;;;;25.65;7.63;;;;;;;13.68;100.00;101043.78;4994168;28;20030;-74
2022/06/09 06:16:21;;;;;;;27.70;7.47;;;;;;;13.70;100.00;101044.41;4992522;28;20483;-75
2022/06/09 06:18:46;;;;;;;21.95;7.35;;;;;;;13.69;100.00;101051.72;4994187;28;20030;-72
2022/06/09 06:21:12;;;;;;;28.55;7.05;;;;;;;13.73;100.00;101052.88;4988506;28;20118;-73
2022/06/09 06:23:37;;;;;;;23.42;6.93;;;;;;;13.70;100.00;101058.81;4994122;28;20081;-72
2022/06/09 06:26:02;;;;;;;19.50;7.75;;;;;;;13.74;100.00;101062.72;4993760;28;20030;-72
2022/06/09 06:28:28;;;;;;;21.98;7.53;;;;;;;13.78;100.00;101063.03;4993501;28;20023;-72
2022/06/09 06:30:53;;;;;;;17.58;6.38;;;;;;;13.74;100.00;101064.59;4993812;28;20030;-72
2022/06/09 06:33:19;;;;;;;19.45;7.50;;;;;;;13.79;100.00;101070.97;4993550;28;20112;-73
2022/06/09 06:35:45;;;;;;;19.85;6.43;;;;;;;13.85;100.00;101076.53;4993373;28;20042;-72
2022/06/09 06:38:11;;;;;;;19.23;6.90;;;;;;;13.84;100.00;101072.94;4993676;28;20533;-72
2022/06/09 06:40:37;;;;;;;19.48;7.13;;;;;;;13.83;100.00;101076.75;4992243;28;20153;-72
2022/06/09 06:43:02;;;;;;;22.08;6.55;;;;;;;13.85;100.00;101085.50;4993704;28;20034;-72
2022/06/09 06:45:28;;;;;;;16.63;6.05;;;;;;;13.89;100.00;101086.69;4993373;28;20034;-72
2022/06/09 06:47:54;;;;;;;20.02;6.20;;;;;;;13.91;100.00;101089.16;4993387;28;20034;-72
2022/06/09 06:50:20;;;;;;;16.30;4.97;;;;;;;13.94;100.00;101102.28;4993431;28;20136;-72
2022/06/09 06:52:46;;;;;;;20.45;6.20;;;;;;;13.94;100.00;101097.66;4993892;28;20481;-72
2022/06/09 06:55:14;;;;;;;13.82;5.93;;;;;;;13.92;100.00;101112.56;4993158;28;20437;-72
2022/06/09 06:57:40;;;;;;;21.08;6.13;;;;;;;13.96;100.00;101119.16;4993067;28;20077;-72
2022/06/09 07:00:08;;;;;;;20.52;6.53;;;;;;;14.00;100.00;101114.91;4993192;28;20501;-72
2022/06/09 07:02:33;;;;;;;18.58;6.28;;;;;;;13.97;100.00;101121.66;4990445;28;20037;-72
2022/06/09 07:04:59;;;;;;;18.52;6.20;;;;;;;13.98;100.00;101106.16;4992998;28;20054;-72
2022/06/09 07:07:25;;;;;;;22.88;6.30;;;;;;;14.02;100.00;101106.50;4992887;28;20077;-72
2022/06/09 07:09:50;;;;;;;18.35;5.57;;;;;;;14.05;100.00;101125.88;4993392;28;20431;-72
2022/06/09 07:12:16;;;;;;;16.38;6.07;;;;;;;14.05;100.00;101127.78;4993229;28;20034;-73
2022/06/09 07:14:41;;;;;;;23.85;6.82;;;;;;;14.10;100.00;101126.00;4993095;28;20121;-73
2022/06/09 07:17:06;;;;;;;16.00;6.32;;;;;;;14.15;100.00;101133.44;4993070;28;20037;-73
2022/06/09 07:19:32;;;;;;;14.32;4.80;;;;;;;14.16;100.00;101135.91;4992990;28;20111;-73
2022/06/09 07:21:58;;;;;;;12.80;4.57;;;;;;;14.18;100.00;101143.84;4993075;28;20026;-73
2022/06/09 07:24:24;;;;;;;11.07;4.20;;;;;;;14.20;100.00;101147.13;4992451;28;20486;-72
2022/06/09 07:26:49;;;;;;;9.90;3.60;;;;;;;14.26;100.00;101150.78;4993430;28;20057;-73
2022/06/09 07:29:15;;;;;;;10.68;3.72;;;;;;;14.29;100.00;101155.75;4993293;28;20022;-73
2022/06/09 07:31:40;;;;;;;7.45;2.97;;;;;;;14.32;100.00;101158.81;4993139;28;20038;-72
2022/06/09 07:34:06;;;;;;;7.07;2.65;;;;;;;14.34;100.00;101153.97;4993159;28;20374;-72
2022/06/09 07:36:32;;;;;;;7.82;2.33;;;;;;;14.41;100.00;101152.97;4992691;28;20038;-72
2022/06/09 07:38:58;;;;;;;8.52;2.50;;;;;;;14.51;100.00;101153.19;4992913;28;20115;-72
2022/06/09 07:41:24;;;;;;;10.00;2.97;;;;;;;14.58;100.00;101153.84;4992740;28;20103;-72
2022/06/09 07:43:50;;;;;;;10.02;2.80;;;;;;;14.66;100.00;101160.81;4991670;28;20117;-73
2022/06/09 07:46:17;;;;;;;9.35;2.33;;;;;;;14.72;100.00;101159.88;4992714;28;20080;-72
2022/06/09 07:48:42;;;;;;;6.22;2.47;;;;;;;14.78;100.00;101163.47;4992869;28;20529;-72
2022/06/09 07:51:08;;;;;;;7.90;2.42;;;;;;;14.81;100.00;101166.56;4992440;28;20121;-72
2022/06/09 07:53:34;;;;;;;5.72;2.00;;;;;;;14.82;100.00;101160.00;4992589;28;20034;-72
2022/06/09 07:55:59;;;;;;;6.25;2.10;;;;;;;14.87;100.00;101173.75;4992632;28;20066;-72
2022/06/09 07:58:25;;;;;;;5.82;1.60;;;;;;;14.85;100.00;101166.88;4992660;28;20085;-72
2022/06/09 08:00:50;;;;;;;3.97;2.08;;;;;;;14.94;100.00;101168.13;4990340;28;20505;-72
2022/06/09 08:03:20;;;;;;;4.95;1.75;;;;;;;15.00;100.00;101180.75;4992603;28;20030;-72
2022/06/09 08:05:45;;;;;;;4.28;1.70;;;;;;;15.05;100.00;101175.41;4992475;28;20458;-72
2022/06/09 08:08:11;;;;;;;7.75;2.22;;;;;;;15.14;100.00;101177.72;4992721;28;20113;-72
2022/06/09 08:10:36;;;;;;;5.10;1.95;;;;;;;15.17;100.00;101182.69;4992526;28;20026;-72
2022/06/09 08:13:03;;;;;;;6.50;2.40;;;;;;;15.14;100.00;101185.91;4992670;28;20458;-72
2022/06/09 08:15:31;;;;;;;5.28;2.05;;;;;;;15.16;100.00;101181.84;4992562;28;20045;-72
2022/06/09 08:17:59;;;;;;;5.82;1.98;;;;;;;15.15;100.00;101184.84;4996361;28;20027;-73
2022/06/09 08:20:27;;;;;;;5.63;2.10;;;;;;;15.20;100.00;101182.19;4995806;28;20113;-73
2022/06/09 08:23:00;;;;;;;6.25;2.30;;;;;;;15.24;100.00;101196.97;4996305;28;20089;-72
2022/06/09 08:25:26;;;;;;;6.40;2.22;;;;;;;15.30;100.00;101204.16;4996009;28;20030;-73
2022/06/09 08:27:51;;;;;;;7.53;2.30;;;;;;;15.31;100.00;101204.97;4995896;28;20065;-73
2022/06/09 08:30:17;;;;;;;5.30;2.25;;;;;;;15.29;100.00;101210.69;4996219;28;20113;-72
2022/06/09 08:32:42;;;;;;;2.83;1.80;;;;;;;15.31;100.00;101208.53;4995893;28;20034;-72
2022/06/09 08:35:13;;;;;;;4.20;1.73;;;;;;;15.27;97.81;101212.84;4995803;28;20034;-73
2022/06/09 08:37:39;;;;;;;6.93;2.10;;;;;;;15.31;100.00;101213.16;4995855;28;20057;-72
2022/06/09 08:40:06;;;;;;;6.88;2.33;;;;;;;15.42;100.00;101217.72;4995986;28;20494;-72
2022/06/09 08:43:08;;;;;;;6.35;2.20;;;;;;;15.47;100.00;101225.97;4995959;28;20042;-73
2022/06/09 08:45:36;;;;;;;7.70;2.50;;;;;;;15.63;100.00;101229.75;4995556;28;20046;-72
2022/06/09 08:48:05;;;;;;;5.28;2.03;;;;;;;15.69;100.00;101228.75;4995799;28;20509;-73
2022/06/09 08:50:42;;;;;;;8.77;2.50;;;;;;;15.86;100.00;101238.88;4995215;28;20034;-73
2022/06/09 08:53:21;;;;;;;10.68;2.35;;;;;;;15.90;100.00;101240.03;4995713;28;20034;-73
2022/06/09 08:55:52;;;;;;;4.65;2.47;;;;;;;15.90;100.00;101237.28;4995559;28;20105;-73
2022/06/09 08:58:25;;;;;;;4.13;1.80;;;;;;;15.93;96.56;101231.34;4995708;28;20030;-73
2022/06/09 09:01:06;;;;;;;4.45;1.80;;;;;;;15.93;94.83;101242.25;4993090;28;20058;-73
2022/06/09 09:03:35;;;;;;;5.75;1.70;;;;;;;15.95;90.56;101254.53;4995354;28;20470;-73
2022/06/09 09:06:09;;;;;;;4.57;1.63;;;;;;;16.00;94.28;101251.06;4995313;28;20467;-73
2022/06/09 09:08:37;;;;;;;6.30;1.92;;;;;;;16.02;91.07;101251.66;4995161;28;20125;-73
2022/06/09 09:11:17;;;;;;;6.22;2.20;;;;;;;16.03;93.89;101256.00;4995491;28;20081;-73
2022/06/09 09:13:53;;;;;;;6.75;2.45;;;;;;;16.08;94.89;101252.56;4995127;28;20045;-73
2022/06/09 09:16:35;;;;;;;4.22;1.98;;;;;;;16.01;91.82;101243.72;4994911;28;20113;-73
2022/06/09 09:19:20;;;;;;;7.63;2.75;;;;;;;16.05;92.97;101259.34;4995632;28;20433;-73
2022/06/09 09:22:16;;;;;;;5.00;2.28;;;;;;;16.05;95.00;101264.78;4995060;28;20026;-73
2022/06/09 09:25:02;;;;;;;4.22;2.38;;;;;;;16.04;95.09;101268.59;4994961;28;20051;-73
2022/06/09 09:27:44;;;;;;;10.02;2.88;;;;;;;16.02;96.90;101276.22;4994697;28;20042;-73
2022/06/09 09:30:24;;;;;;;4.85;2.35;;;;;;;15.97;96.23;101281.59;4994897;28;20482;-73
2022/06/09 09:32:53;;;;;;;4.50;2.28;;;;;;;15.92;94.51;101278.78;4995012;28;20034;-72
2022/06/09 09:35:27;;;;;;;6.97;2.20;;;;;;;15.93;97.15;101281.28;4995029;28;20026;-73
2022/06/09 09:37:55;;;;;;;6.20;2.60;;;;;;;16.05;98.96;101280.34;4994953;28;20042;-73
2022/06/09 09:40:31;;;;;;;5.15;2.38;;;;;;;16.12;96.93;101289.19;4994961;28;20037;-73
2022/06/09 09:43:05;;;;;;;5.95;2.50;;;;;;;16.18;100.00;101285.44;4994942;28;20550;-73
2022/06/09 09:45:35;;;;;;;7.53;2.72;;;;;;;16.21;99.14;101287.66;4994540;28;20027;-73
2022/06/09 09:48:05;;;;;;;6.28;2.72;;;;;;;16.21;98.21;101290.38;4994741;28;20355;-73
2022/06/09 09:50:38;;;;;;;21.30;3.97;;;;;;;16.23;97.84;101288.25;4994167;28;20367;-73
2022/06/09 09:53:19;;;;;;;6.90;2.72;;;;;;;16.32;99.34;101299.56;4994670;28;20031;-73
2022/06/09 09:55:55;;;;;;;6.07;3.00;;;;;;;16.45;99.82;101298.34;4994468;28;20452;-73
2022/06/09 09:58:39;;;;;;;5.93;3.00;;;;;;;16.53;98.14;101299.81;4994414;28;20034;-73
2022/06/09 10:01:16;;;;;;;7.72;3.00;;;;;;;16.58;99.53;101313.56;4992073;28;20034;-73
2022/06/09 10:09:52;;;;;;;7.53;3.20;;;;;;;16.46;100.00;101327.34;4993951;28;20089;-73
2022/06/09 10:12:27;;;;;;;17.00;4.50;;;;;;;16.31;100.00;101336.16;4994427;28;20502;-73
2022/06/09 10:14:52;;;;;;;23.88;7.05;;;;;;;16.02;100.00;101336.28;4993899;28;20363;-72
2022/06/09 10:17:32;;;;;;;12.07;4.63;;;;;;;15.93;100.00;101322.22;4994299;28;20045;-72
2022/06/09 10:20:15;;;;;;;6.78;2.58;;;;;;;15.74;100.00;101327.06;4994044;28;20031;-72
2022/06/09 10:22:56;;;;;;;6.35;3.53;;;;;;;15.67;100.00;101340.06;4993794;28;20050;-72
2022/06/09 10:25:25;;;;;;;10.35;4.55;;;;;;;15.67;100.00;101334.59;4993960;28;20038;-72
2022/06/09 10:27:58;;;;;;;11.18;4.90;;;;;;;15.70;100.00;101342.28;4993730;28;20069;-73
2022/06/09 10:30:33;;;;;;;11.55;5.45;;;;;;;15.73;100.00;101333.59;4992621;28;20477;-72
2022/06/09 10:33:05;;;;;;;9.25;5.40;;;;;;;15.80;100.00;101344.38;4993955;28;20033;-73
2022/06/09 10:35:52;;;;;;;11.35;5.75;;;;;;;15.91;100.00;101335.28;4993500;28;20022;-73
2022/06/09 10:38:41;;;;;;;10.75;7.43;;;;;;;16.11;100.00;101344.88;4993328;28;20073;-73
2022/06/09 10:41:12;;;;;;;10.50;7.35;;;;;;;16.20;100.00;101345.25;4993620;28;20355;-73
2022/06/09 10:43:55;;;;;;;13.23;9.35;;;;;;;16.35;100.00;101348.22;4993341;28;20125;-73
2022/06/09 10:46:43;;;;;;;11.30;8.40;;;;;;;16.47;100.00;101348.94;4993765;28;20110;-73
2022/06/09 10:55:24;;;;;;;9.18;6.80;;;;;;;16.83;100.00;101357.59;4993570;28;20533;-73
2022/06/09 10:58:15;;;;;;;8.43;7.53;;;;;;;16.95;100.00;101349.31;4993416;28;20041;-73
2022/06/09 11:00:45;;;;;;;9.73;5.38;;;;;;;17.07;96.94;101362.00;4990898;28;20030;-73
2022/06/09 11:03:17;;;;;;;6.72;3.90;;;;;;;17.15;93.78;101362.38;4993239;28;20109;-73
2022/06/09 11:06:03;;;;;;;5.60;3.35;;;;;;;17.17;95.35;101362.13;4993166;28;20073;-73
2022/06/09 11:08:50;;;;;;;7.78;3.30;;;;;;;17.18;84.67;101371.94;4992835;28;20137;-73
2022/06/09 11:11:43;;;;;;;7.68;3.65;;;;;;;17.17;88.92;101357.47;4992146;28;20136;-72
2022/06/09 11:14:47;;;;;;;11.00;3.83;;;;;;;17.18;91.13;101371.94;4993292;28;20038;-73
2022/06/09 11:17:46;;;;;;;10.18;2.92;;;;;;;17.22;92.16;101378.56;4991822;28;20078;-73
2022/06/09 11:20:39;;;;;;;8.30;3.25;;;;;;;17.36;95.78;101379.81;4993092;28;20034;-73
2022/06/09 11:23:21;;;;;;;18.00;3.25;;;;;;;17.58;90.14;101372.66;4992997;28;20080;-73
2022/06/09 11:25:55;;;;;;;11.00;3.00;;;;;;;17.53;81.83;101371.50;4993020;28;20057;-73
2022/06/09 11:28:42;;;;;;;8.80;2.85;;;;;;;17.37;82.96;101383.38;4993119;28;20030;-73
2022/06/09 11:31:19;;;;;;;10.35;2.80;;;;;;;17.24;83.99;101381.03;4992853;28;20386;-73
2022/06/09 11:33:50;;;;;;;12.60;3.00;;;;;;;17.17;86.17;101384.81;4992468;28;20030;-73
2022/06/09 11:36:23;;;;;;;8.20;3.10;;;;;;;17.14;81.26;101382.59;4993142;28;20106;-73
2022/06/09 11:39:08;;;;;;;11.00;2.70;;;;;;;17.08;85.58;101391.00;4992631;28;20037;-73
2022/06/09 11:41:43;;;;;;;9.15;2.80;;;;;;;17.07;83.18;101389.34;4991603;28;20035;-73
2022/06/09 11:44:28;;;;;;;8.55;2.70;;;;;;;17.01;79.67;101396.66;4992976;28;20031;-73
2022/06/09 11:46:59;;;;;;;13.38;3.00;;;;;;;16.95;81.69;101403.97;4992644;28;20474;-73